Time;durP1;ratioP1;P1;durP2;ratioP2;P2;SDS_P1;SDS_P2;PMS_P1;PMS_P2;Temp;Humidity;BMP_temperature;BMP_pressure;BME280_temperature;BME280_humidity;BME280_pressure;Samples;Min_cycle;Max_cycle;Signal;HPM_P1;HPM_P2
2021/05/05 00:00:25;;;;;;;5.20;1.47;;;8.60;90.90;;;;;;5011616;28;20026;-86
2021/05/05 00:02:52;;;;;;;7.18;1.83;;;8.50;91.10;;;;;;5011964;28;20101;-86
2021/05/05 00:05:18;;;;;;;4.13;1.70;;;8.60;91.30;;;;;;5011927;28;20038;-86
2021/05/05 00:07:44;;;;;;;3.30;1.57;;;8.60;91.40;;;;;;5010909;28;20109;-86
2021/05/05 00:10:11;;;;;;;3.53;1.50;;;8.60;91.40;;;;;;5026761;28;20486;-86
2021/05/05 00:12:38;;;;;;;4.77;1.53;;;8.60;91.20;;;;;;5010840;28;20028;-86
2021/05/05 00:15:08;;;;;;;5.30;2.03;;;8.60;91.10;;;;;;5010583;28;20061;-86
2021/05/05 00:17:34;;;;;;;4.80;1.40;;;8.60;91.10;;;;;;5010800;28;20033;-86
2021/05/05 00:19:59;;;;;;;4.47;1.50;;;8.60;91.00;;;;;;5010028;28;20026;-86
2021/05/05 00:22:25;;;;;;;4.73;1.30;;;8.60;91.00;;;;;;5010409;28;20065;-86
2021/05/05 00:24:50;;;;;;;4.07;1.27;;;8.60;91.00;;;;;;5011699;28;20026;-86
2021/05/05 00:27:16;;;;;;;2.83;1.30;;;8.50;90.90;;;;;;5011190;28;20544;-87
2021/05/05 00:29:42;;;;;;;4.67;1.30;;;8.50;91.30;;;;;;5013875;28;20022;-87
2021/05/05 00:32:08;;;;;;;3.93;1.30;;;8.50;90.80;;;;;;5015449;28;20100;-87
2021/05/05 00:34:34;;;;;;;3.70;1.20;;;8.50;90.70;;;;;;5014165;28;20025;-87
2021/05/05 00:37:00;;;;;;;4.27;1.23;;;8.50;90.40;;;;;;5014045;28;20033;-86
2021/05/05 00:39:26;;;;;;;3.67;1.30;;;8.50;90.50;;;;;;5013686;28;20049;-86
2021/05/05 00:41:54;;;;;;;3.83;1.20;;;8.50;90.70;;;;;;5014029;28;20117;-86
2021/05/05 00:44:22;;;;;;;4.63;1.10;;;8.60;90.30;;;;;;5013716;28;20094;-86
2021/05/05 00:46:47;;;;;;;3.23;1.23;;;8.50;90.10;;;;;;5013671;28;20281;-86
2021/05/05 00:49:16;;;;;;;4.77;1.33;;;8.50;90.30;;;;;;5013005;28;20518;-86
2021/05/05 00:51:42;;;;;;;6.47;1.30;;;8.50;90.50;;;;;;5013583;28;20022;-86
2021/05/05 00:54:07;;;;;;;2.57;1.30;;;8.30;91.00;;;;;;5013789;28;20022;-86
2021/05/05 00:56:33;;;;;;;4.37;1.30;;;8.10;91.20;;;;;;5013527;28;20115;-86
2021/05/05 00:58:59;;;;;;;4.90;1.10;;;8.10;91.50;;;;;;5013182;28;20113;-86
2021/05/05 01:01:25;;;;;;;2.77;0.97;;;8.20;91.50;;;;;;5013427;28;20522;-86
2021/05/05 01:03:51;;;;;;;2.57;0.90;;;8.10;91.30;;;;;;5013484;28;20025;-86
2021/05/05 01:06:16;;;;;;;3.47;1.10;;;8.00;91.20;;;;;;5014586;28;20025;-86
2021/05/05 01:08:46;;;;;;;5.87;1.67;;;8.10;91.50;;;;;;5013600;28;20029;-86
2021/05/05 01:11:11;;;;;;;;;;;8.10;91.70;;;;;;5014484;28;20037;-87
2021/05/05 01:13:37;;;;;;;4.20;1.50;;;8.00;91.30;;;;;;5013378;28;19905;-86
2021/05/05 01:16:03;;;;;;;3.27;1.17;;;8.10;91.50;;;;;;5013308;28;20565;-87
2021/05/05 01:18:28;;;;;;;4.07;1.77;;;8.20;91.20;;;;;;5014456;28;20513;-87
2021/05/05 01:20:56;;;;;;;3.83;1.50;;;8.20;91.80;;;;;;5012597;28;20088;-86
2021/05/05 01:23:23;;;;;;;4.17;1.60;;;8.20;91.40;;;;;;5013043;28;20395;-86
2021/05/05 01:25:48;;;;;;;5.57;1.80;;;8.20;91.40;;;;;;5014204;28;20036;-86
2021/05/05 01:28:14;;;;;;;5.97;1.50;;;8.20;91.30;;;;;;5013148;28;20022;-86
2021/05/05 01:30:40;;;;;;;8.33;2.10;;;8.30;91.50;;;;;;5013809;28;20517;-86
2021/05/05 01:33:06;;;;;;;8.13;1.90;;;8.20;91.30;;;;;;5012760;28;20040;-87
2021/05/05 01:35:32;;;;;;;6.63;1.97;;;8.30;91.40;;;;;;5029323;28;20164;-86
2021/05/05 01:37:58;;;;;;;6.67;2.10;;;8.30;91.20;;;;;;5013776;28;20026;-87
2021/05/05 01:40:29;;;;;;;5.83;1.80;;;8.30;91.30;;;;;;5028736;28;20026;-87
2021/05/05 01:42:56;;;;;;;5.57;2.07;;;8.30;91.10;;;;;;5013983;28;20026;-86
2021/05/05 01:45:21;;;;;;;6.03;1.90;;;8.30;91.20;;;;;;5012386;28;20034;-87
2021/05/05 01:47:47;;;;;;;5.93;2.53;;;8.30;91.20;;;;;;5012567;28;20024;-86
2021/05/05 01:50:13;;;;;;;7.77;2.30;;;8.00;91.50;;;;;;5013378;28;20026;-86
2021/05/05 01:52:39;;;;;;;8.10;2.47;;;8.10;91.80;;;;;;5013866;28;20018;-87
2021/05/05 01:55:08;;;;;;;8.10;2.50;;;8.00;91.60;;;;;;5013861;28;20022;-86
2021/05/05 01:57:42;;;;;;;8.25;2.30;;;8.00;91.80;;;;;;5012349;28;20120;-86
2021/05/05 02:00:15;;;;;;;9.33;2.70;;;8.00;92.00;;;;;;5011897;28;20494;-86
2021/05/05 02:02:40;;;;;;;6.80;2.50;;;8.00;91.90;;;;;;5012490;28;20221;-86
2021/05/05 02:05:07;;;;;;;8.33;2.70;;;8.00;92.00;;;;;;5012224;28;20041;-86
2021/05/05 02:07:33;;;;;;;9.13;2.80;;;7.80;92.10;;;;;;5012391;28;20022;-87
2021/05/05 02:09:59;;;;;;;5.90;2.30;;;7.80;92.30;;;;;;5011737;28;20474;-86
2021/05/05 02:12:25;;;;;;;10.07;2.60;;;7.90;92.50;;;;;;5028822;28;20121;-87
2021/05/05 02:14:50;;;;;;;6.23;2.30;;;7.90;92.20;;;;;;5012531;28;20467;-87
2021/05/05 02:17:17;;;;;;;5.43;2.40;;;8.00;92.20;;;;;;5012315;28;20057;-87
2021/05/05 02:19:43;;;;;;;4.87;2.10;;;8.00;92.10;;;;;;5011770;28;20033;-88
2021/05/05 02:22:09;;;;;;;3.73;1.90;;;8.00;91.90;;;;;;5012302;28;20121;-87
2021/05/05 02:24:35;;;;;;;3.70;1.73;;;7.90;92.30;;;;;;5012237;28;20026;-88
2021/05/05 02:27:01;;;;;;;7.30;2.10;;;7.80;92.00;;;;;;5013419;28;20076;-87
2021/05/05 02:29:26;;;;;;;4.97;1.90;;;7.80;91.90;;;;;;5011715;28;20026;-88
2021/05/05 02:31:53;;;;;;;3.30;1.80;;;7.80;92.10;;;;;;5012049;28;20398;-88
2021/05/05 02:34:19;;;;;;;5.13;1.90;;;7.80;91.90;;;;;;5012133;28;20033;-88
2021/05/05 02:36:44;;;;;;;4.47;1.93;;;7.70;92.10;;;;;;5011995;28;20026;-88
2021/05/05 02:39:11;;;;;;;6.67;1.97;;;7.80;91.90;;;;;;5011978;28;20030;-87
2021/05/05 02:41:39;;;;;;;4.33;1.70;;;7.70;91.70;;;;;;5011896;28;20179;-88
2021/05/05 02:44:05;;;;;;;4.03;1.80;;;7.80;92.20;;;;;;5011622;28;20087;-87
2021/05/05 02:46:31;;;;;;;4.60;2.10;;;7.80;91.40;;;;;;5012882;28;20049;-87
2021/05/05 02:48:57;;;;;;;6.10;2.23;;;7.80;91.60;;;;;;5027797;28;20431;-87
2021/05/05 02:51:22;;;;;;;3.70;1.40;;;7.80;91.40;;;;;;5011084;28;20029;-87
2021/05/05 02:53:48;;;;;;;4.20;2.10;;;7.70;91.30;;;;;;5028131;28;20368;-88
2021/05/05 02:56:14;;;;;;;3.03;1.60;;;7.70;91.70;;;;;;5013160;28;20057;-87
2021/05/05 02:58:40;;;;;;;4.87;2.10;;;7.60;91.40;;;;;;5011757;28;20033;-87
2021/05/05 03:01:05;;;;;;;3.03;1.93;;;7.50;91.70;;;;;;5010559;28;20526;-87
2021/05/05 03:03:31;;;;;;;4.40;2.17;;;7.50;91.90;;;;;;5011845;28;20053;-87
2021/05/05 03:05:57;;;;;;;5.43;2.37;;;7.60;91.90;;;;;;5011310;28;20544;-88
2021/05/05 03:08:22;;;;;;;5.57;2.53;;;7.70;91.70;;;;;;5011515;28;20018;-88
2021/05/05 03:10:48;;;;;;;5.03;2.40;;;7.70;91.80;;;;;;5011121;28;20026;-87
2021/05/05 03:13:14;;;;;;;8.57;3.53;;;7.60;91.90;;;;;;5011408;28;20092;-87
2021/05/05 03:15:40;;;;;;;8.37;3.50;;;7.60;92.10;;;;;;5012885;28;20034;-87
2021/05/05 03:18:06;;;;;;;6.43;2.63;;;7.70;92.20;;;;;;5011280;28;20116;-87
2021/05/05 03:20:32;;;;;;;6.40;3.00;;;7.70;92.20;;;;;;5010738;28;20026;-87
2021/05/05 03:22:57;;;;;;;7.83;3.20;;;7.70;92.30;;;;;;5011286;28;20030;-87
2021/05/05 03:25:23;;;;;;;6.83;3.47;;;7.70;92.50;;;;;;5011153;28;20037;-87
2021/05/05 03:27:49;;;;;;;6.87;3.60;;;7.70;92.50;;;;;;5011155;28;20095;-87
2021/05/05 03:30:16;;;;;;;6.43;3.57;;;7.70;92.70;;;;;;5010761;28;20423;-87
2021/05/05 03:32:41;;;;;;;7.03;3.70;;;7.70;92.80;;;;;;5011021;28;20115;-87
2021/05/05 03:35:08;;;;;;;6.53;3.57;;;7.70;92.90;;;;;;5011156;28;20069;-87
2021/05/05 03:37:34;;;;;;;8.13;3.80;;;7.70;93.20;;;;;;5012360;28;20100;-87
2021/05/05 03:40:00;;;;;;;6.53;3.70;;;7.60;92.90;;;;;;5010534;28;20125;-87
2021/05/05 03:42:26;;;;;;;10.53;4.40;;;7.70;93.10;;;;;;5012160;28;20109;-87
2021/05/05 03:44:51;;;;;;;8.27;4.47;;;7.60;93.10;;;;;;5027443;28;20033;-87
2021/05/05 03:47:17;;;;;;;8.80;4.00;;;7.50;93.00;;;;;;5010992;28;20037;-87
2021/05/05 03:49:43;;;;;;;7.53;3.93;;;7.50;93.10;;;;;;5011815;28;20033;-87
2021/05/05 03:52:08;;;;;;;8.17;4.20;;;7.50;93.40;;;;;;5010825;28;20109;-87
2021/05/05 03:54:34;;;;;;;11.43;5.63;;;7.50;93.30;;;;;;5010945;28;20533;-87
2021/05/05 03:57:00;;;;;;;8.67;4.10;;;7.50;93.60;;;;;;5027474;28;20037;-87
2021/05/05 03:59:25;;;;;;;7.07;4.03;;;7.50;93.40;;;;;;5026758;28;20029;-86
2021/05/05 04:01:51;;;;;;;9.33;4.17;;;7.60;93.40;;;;;;5012660;28;20475;-87
2021/05/05 04:04:17;;;;;;;8.03;3.93;;;7.70;93.30;;;;;;5014784;28;20129;-87
2021/05/05 04:06:42;;;;;;;8.27;4.20;;;7.70;93.10;;;;;;5014548;28;20026;-87
2021/05/05 04:09:10;;;;;;;7.93;4.37;;;7.70;93.30;;;;;;5014151;28;20037;-87
2021/05/05 04:11:36;;;;;;;9.43;4.70;;;7.70;93.40;;;;;;5031121;28;20418;-87
2021/05/05 04:14:02;;;;;;;8.63;4.27;;;7.70;93.10;;;;;;5031178;28;20057;-87
2021/05/05 04:16:28;;;;;;;8.20;4.50;;;7.70;93.00;;;;;;5014464;28;20036;-87
2021/05/05 04:18:54;;;;;;;11.00;4.90;;;7.80;93.20;;;;;;5014016;28;20493;-86
2021/05/05 04:21:20;;;;;;;9.10;4.77;;;7.70;93.20;;;;;;5014474;28;20041;-87
2021/05/05 04:23:46;;;;;;;8.00;4.50;;;7.70;93.40;;;;;;5015517;28;20029;-87
2021/05/05 04:27:04;;;;;;;9.33;4.67;;;7.60;93.50;;;;;;5015462;28;20387;-87
2021/05/05 04:33:54;;;;;;;9.83;4.80;;;7.60;93.50;;;;;;5002435;28;20124;-87
2021/05/05 04:40:40;;;;;;;11.13;5.33;;;7.70;93.50;;;;;;4916256;29;20091;-87
2021/05/05 04:47:08;;;;;;;12.77;7.70;;;7.60;93.60;;;;;;4878513;29;20055;-88
2021/05/05 04:49:34;;;;;;;9.00;6.03;;;7.50;93.80;;;;;;4842389;29;20128;-88
2021/05/05 04:52:00;;;;;;;16.90;6.37;;;7.50;93.70;;;;;;4953701;28;20335;-87
2021/05/05 04:54:26;;;;;;;11.13;6.10;;;7.40;94.10;;;;;;4977107;28;20034;-87
2021/05/05 04:56:51;;;;;;;10.97;5.47;;;7.40;94.00;;;;;;5030358;28;20489;-87
2021/05/05 04:59:17;;;;;;;13.83;6.03;;;7.50;94.20;;;;;;5013768;28;20017;-87
2021/05/05 05:05:28;;;;;;;9.17;5.90;;;7.50;93.90;;;;;;5012616;28;20102;-87
2021/05/05 05:09:14;;;;;;;9.57;5.10;;;7.50;93.80;;;;;;5006696;28;20084;-87
2021/05/05 05:12:16;;;;;;;17.90;6.07;;;7.50;93.80;;;;;;4950734;28;20026;-87
2021/05/05 05:18:04;;;;;;;10.97;3.83;;;7.50;93.80;;;;;;5012512;28;20045;-87
2021/05/05 05:20:31;;;;;;;6.93;2.90;;;7.40;93.50;;;;;;5011555;28;20034;-87
2021/05/05 05:22:56;;;;;;;5.27;2.53;;;7.40;93.40;;;;;;5029947;28;20022;-87
2021/05/05 05:25:24;;;;;;;4.20;2.10;;;7.30;93.40;;;;;;5014738;28;20029;-87
2021/05/05 05:27:50;;;;;;;6.87;2.20;;;7.20;93.30;;;;;;5013291;28;20108;-87
2021/05/05 05:30:18;;;;;;;4.77;2.00;;;7.30;93.60;;;;;;5012910;28;20115;-87
2021/05/05 05:32:44;;;;;;;3.87;1.77;;;7.30;93.60;;;;;;5013211;28;20049;-87
2021/05/05 05:35:11;;;;;;;4.20;1.60;;;7.10;93.40;;;;;;5029366;28;20029;-86
2021/05/05 05:37:36;;;;;;;5.07;1.93;;;7.20;93.60;;;;;;5013786;28;20128;-86
2021/05/05 05:40:04;;;;;;;4.83;2.20;;;7.10;93.80;;;;;;5029321;28;20117;-86
2021/05/05 05:42:30;;;;;;;7.97;3.20;;;7.10;94.30;;;;;;5014357;28;20442;-87
2021/05/05 05:44:55;;;;;;;8.30;3.87;;;7.10;94.50;;;;;;5014905;28;20029;-86
2021/05/05 05:47:21;;;;;;;8.77;4.70;;;7.20;95.00;;;;;;5017140;28;20072;-86
2021/05/05 05:49:47;;;;;;;9.63;6.13;;;7.10;95.00;;;;;;5017564;28;20036;-86
2021/05/05 05:52:12;;;;;;;12.33;7.20;;;7.10;95.70;;;;;;5018220;28;20018;-86
2021/05/05 05:54:38;;;;;;;13.40;7.70;;;7.00;95.70;;;;;;5013233;28;20057;-87
2021/05/05 05:57:04;;;;;;;15.53;9.43;;;7.20;96.20;;;;;;5013567;28;20128;-86
2021/05/05 05:59:30;;;;;;;14.60;10.43;;;7.20;95.90;;;;;;5013430;28;20030;-86
2021/05/05 06:01:55;;;;;;;16.13;10.27;;;7.20;96.00;;;;;;5014719;28;20371;-87
2021/05/05 06:04:21;;;;;;;14.10;10.13;;;7.20;96.10;;;;;;5012870;28;20022;-86
2021/05/05 06:06:47;;;;;;;18.30;9.53;;;7.20;96.30;;;;;;5013798;28;20030;-87
2021/05/05 06:09:12;;;;;;;14.03;9.07;;;7.30;96.40;;;;;;5012190;28;20036;-87
2021/05/05 06:11:38;;;;;;;12.33;8.50;;;7.20;96.00;;;;;;5013615;28;20112;-87
2021/05/05 06:14:07;;;;;;;10.90;8.20;;;7.30;96.20;;;;;;5013783;28;20058;-87
2021/05/05 06:16:33;;;;;;;11.25;8.10;;;7.20;96.10;;;;;;5013078;28;20438;-87
2021/05/05 06:18:59;;;;;;;13.03;7.37;;;7.30;96.40;;;;;;5011761;28;20372;-86
2021/05/05 06:21:25;;;;;;;15.17;8.53;;;7.10;96.10;;;;;;5012017;28;20030;-87
2021/05/05 06:23:51;;;;;;;15.27;7.00;;;7.20;96.80;;;;;;5012221;28;20022;-87
2021/05/05 06:26:17;;;;;;;10.30;5.80;;;7.10;96.50;;;;;;5011292;28;20453;-87
2021/05/05 06:28:43;;;;;;;9.60;5.43;;;7.10;96.50;;;;;;5013378;28;20018;-86
2021/05/05 06:31:08;;;;;;;8.73;5.93;;;6.70;97.20;;;;;;5013027;28;20073;-87
2021/05/05 06:33:34;;;;;;;13.67;6.80;;;6.50;97.40;;;;;;5012290;28;20475;-86
2021/05/05 06:36:00;;;;;;;10.80;7.37;;;6.30;98.20;;;;;;5012758;28;20121;-86
2021/05/05 06:38:25;;;;;;;11.87;7.30;;;6.20;98.60;;;;;;5012079;28;20030;-86
2021/05/05 06:40:51;;;;;;;11.73;7.37;;;6.20;99.00;;;;;;5012327;28;20542;-86
2021/05/05 06:43:17;;;;;;;8.20;5.97;;;6.20;98.80;;;;;;5011814;28;20406;-86
2021/05/05 06:45:43;;;;;;;10.43;6.10;;;6.30;98.70;;;;;;5011846;28;20017;-86
2021/05/05 06:48:08;;;;;;;9.03;5.90;;;6.10;99.20;;;;;;5011622;28;20490;-86
2021/05/05 06:50:34;;;;;;;9.67;5.93;;;6.10;99.20;;;;;;5027778;28;20052;-86
2021/05/05 06:53:00;;;;;;;7.70;5.80;;;6.10;99.40;;;;;;5011621;28;20021;-86
2021/05/05 06:55:26;;;;;;;9.00;5.90;;;6.20;99.10;;;;;;5013180;28;20049;-86
2021/05/05 06:57:51;;;;;;;9.10;6.00;;;6.20;98.60;;;;;;5011474;28;20387;-87
2021/05/05 07:00:18;;;;;;;11.03;7.60;;;6.20;99.40;;;;;;5011126;28;20029;-86
2021/05/05 07:02:44;;;;;;;11.07;7.30;;;6.30;99.80;;;;;;5011286;28;20453;-86
2021/05/05 07:05:10;;;;;;;8.37;6.20;;;6.30;99.40;;;;;;5011427;28;20025;-86
2021/05/05 07:07:36;;;;;;;10.47;6.80;;;6.40;98.70;;;;;;5011294;28;20026;-86
2021/05/05 07:10:04;;;;;;;9.67;5.50;;;6.40;99.60;;;;;;5010810;28;20036;-86
2021/05/05 07:12:30;;;;;;;8.63;5.40;;;6.50;98.70;;;;;;5012540;28;20021;-86
2021/05/05 07:14:55;;;;;;;8.63;5.50;;;6.50;98.90;;;;;;5011554;28;20025;-87
2021/05/05 07:17:21;;;;;;;6.97;5.23;;;6.60;99.10;;;;;;5011554;28;20025;-87
2021/05/05 07:19:49;;;;;;;7.17;4.40;;;6.70;99.40;;;;;;5010733;28;20441;-87
2021/05/05 07:22:15;;;;;;;7.43;4.90;;;6.70;98.60;;;;;;5027813;28;20026;-86
2021/05/05 07:24:40;;;;;;;7.00;3.97;;;6.70;99.00;;;;;;5028030;28;20180;-87
2021/05/05 07:27:06;;;;;;;7.83;3.90;;;6.70;98.60;;;;;;5012396;28;20029;-86
2021/05/05 07:29:32;;;;;;;8.50;4.13;;;6.70;98.40;;;;;;5012116;28;20104;-86
2021/05/05 07:31:58;;;;;;;6.93;4.47;;;6.70;98.30;;;;;;5011297;28;20490;-87
2021/05/05 07:34:25;;;;;;;7.67;4.47;;;6.60;98.30;;;;;;5011366;28;20025;-87
2021/05/05 07:36:52;;;;;;;8.47;4.40;;;6.60;99.40;;;;;;5012147;28;20049;-87
2021/05/05 07:42:24;;;;;;;6.27;3.83;;;6.50;98.40;;;;;;5012643;28;20087;-87
2021/05/05 07:47:38;;;;;;;5.43;3.57;;;6.60;98.80;;;;;;5012403;28;20045;-87
2021/05/05 07:50:05;;;;;;;8.43;3.87;;;6.50;98.40;;;;;;5026867;28;20508;-87
2021/05/05 07:52:31;;;;;;;5.57;3.53;;;6.60;99.00;;;;;;5027366;28;20415;-86
2021/05/05 07:54:57;;;;;;;8.40;4.37;;;6.50;98.90;;;;;;5012311;28;20030;-86
2021/05/05 07:57:22;;;;;;;7.27;4.20;;;6.50;98.60;;;;;;5010931;28;20026;-86
2021/05/05 07:59:48;;;;;;;4.50;1.70;;;6.60;98.70;;;;;;5010591;28;20026;-87
2021/05/05 08:02:14;;;;;;;3.00;1.60;;;6.50;97.20;;;;;;5027591;28;20482;-86
2021/05/05 08:04:49;;;;;;;3.60;1.50;;;6.40;97.50;;;;;;5027299;28;20109;-86
2021/05/05 08:07:17;;;;;;;2.47;1.50;;;6.40;97.60;;;;;;5027558;28;20084;-86
2021/05/05 08:09:42;;;;;;;4.23;1.80;;;6.30;97.30;;;;;;5010325;28;20105;-87
2021/05/05 08:12:09;;;;;;;4.10;1.90;;;6.20;97.50;;;;;;5011983;28;20522;-86
2021/05/05 08:14:35;;;;;;;3.67;1.90;;;6.30;98.00;;;;;;5010910;28;20113;-86
2021/05/05 08:17:01;;;;;;;4.60;1.97;;;6.40;97.90;;;;;;5010457;28;20137;-86
2021/05/05 08:19:26;;;;;;;3.50;2.00;;;6.50;98.40;;;;;;5026781;28;20033;-86
2021/05/05 08:21:52;;;;;;;4.60;1.93;;;6.50;97.60;;;;;;5027183;28;20371;-87
2021/05/05 08:24:18;;;;;;;4.13;1.73;;;6.60;97.70;;;;;;5012039;28;20025;-86
2021/05/05 08:26:45;;;;;;;4.90;2.00;;;6.70;98.00;;;;;;5027098;28;20030;-86
2021/05/05 08:29:10;;;;;;;6.47;2.50;;;6.70;96.90;;;;;;5010102;28;20462;-86
2021/05/05 08:31:36;;;;;;;3.40;2.00;;;6.80;98.20;;;;;;5010587;28;20054;-86
2021/05/05 08:34:02;;;;;;;4.70;2.20;;;6.90;97.50;;;;;;5011836;28;20029;-87
2021/05/05 08:36:27;;;;;;;4.03;2.30;;;7.00;97.50;;;;;;5011781;28;20461;-86
2021/05/05 08:38:55;;;;;;;6.90;2.13;;;7.00;96.80;;;;;;5011543;28;20100;-87
2021/05/05 08:41:21;;;;;;;7.23;2.30;;;7.00;97.00;;;;;;5011915;28;20033;-87
2021/05/05 08:43:47;;;;;;;6.63;2.60;;;7.20;97.10;;;;;;5010553;28;20045;-87
2021/05/05 08:46:13;;;;;;;5.03;2.40;;;7.20;96.30;;;;;;5010340;28;20042;-87
2021/05/05 08:48:39;;;;;;;5.67;2.80;;;7.20;96.20;;;;;;5027910;28;20036;-86
2021/05/05 08:51:08;;;;;;;7.30;2.60;;;7.30;97.30;;;;;;5014637;28;20018;-86
2021/05/05 08:53:34;;;;;;;8.18;2.88;;;7.30;96.50;;;;;;5015479;28;20021;-87
2021/05/05 08:56:00;;;;;;;8.63;2.87;;;7.40;96.80;;;;;;5015214;28;20034;-87
2021/05/05 08:58:26;;;;;;;7.90;2.63;;;7.50;96.10;;;;;;5015174;28;20033;-86
2021/05/05 09:00:55;;;;;;;7.90;3.17;;;7.50;95.40;;;;;;5013083;28;20386;-86
2021/05/05 09:03:30;;;;;;;8.27;2.43;;;7.50;96.30;;;;;;5014913;28;20371;-86
2021/05/05 09:06:01;;;;;;;12.03;3.07;;;7.70;95.70;;;;;;5014800;28;20026;-86
2021/05/05 09:08:28;;;;;;;7.50;2.73;;;7.80;95.00;;;;;;5013610;28;20050;-86
2021/05/05 09:10:56;;;;;;;8.97;3.17;;;7.80;94.90;;;;;;5013243;28;20026;-86
2021/05/05 09:13:57;;;;;;;9.17;3.17;;;7.80;93.80;;;;;;5013425;28;20029;-87
2021/05/05 09:16:30;;;;;;;8.03;3.03;;;7.80;94.50;;;;;;5013341;28;20115;-86
2021/05/05 09:19:03;;;;;;;8.77;3.07;;;7.90;94.40;;;;;;5029339;28;20033;-86
2021/05/05 09:21:37;;;;;;;10.43;3.00;;;7.90;94.20;;;;;;5013284;28;20386;-87
2021/05/05 09:24:30;;;;;;;10.00;3.20;;;7.90;93.60;;;;;;5014595;28;20040;-86
2021/05/05 09:27:01;;;;;;;7.20;3.07;;;7.80;93.70;;;;;;5014550;28;20017;-86
2021/05/05 09:29:37;;;;;;;8.23;3.00;;;7.80;94.50;;;;;;5013927;28;20026;-86
2021/05/05 09:32:02;;;;;;;10.50;3.60;;;7.80;94.60;;;;;;5013046;28;20022;-87
2021/05/05 09:34:28;;;;;;;16.03;3.30;;;7.90;94.30;;;;;;5013171;28;20028;-86
2021/05/05 09:37:02;;;;;;;10.97;3.40;;;7.90;94.00;;;;;;5013172;28;20475;-87
2021/05/05 09:39:31;;;;;;;10.03;3.40;;;7.90;94.40;;;;;;5012494;28;20450;-86
2021/05/05 09:41:58;;;;;;;12.18;4.05;;;7.80;94.60;;;;;;5014153;28;20018;-86
2021/05/05 09:44:24;;;;;;;12.47;4.67;;;7.70;94.60;;;;;;5029242;28;20498;-86
2021/05/05 09:46:52;;;;;;;10.67;4.27;;;7.60;94.90;;;;;;5014039;28;20541;-86
2021/05/05 09:49:40;;;;;;;13.98;5.50;;;7.60;95.40;;;;;;5013526;28;20033;-86
2021/05/05 09:52:11;;;;;;;18.87;6.27;;;7.60;96.50;;;;;;5013113;28;20052;-86
2021/05/05 09:54:52;;;;;;;15.03;5.13;;;7.30;97.80;;;;;;5012817;28;20317;-85
2021/05/05 09:57:27;;;;;;;12.27;4.90;;;7.00;97.40;;;;;;5012314;28;20030;-86
2021/05/05 10:00:15;;;;;;;8.93;3.40;;;7.00;98.70;;;;;;5012954;28;20026;-86
2021/05/05 10:02:48;;;;;;;10.13;4.32;;;7.00;98.60;;;;;;5012436;28;20113;-86
2021/05/05 10:05:15;;;;;;;7.83;3.97;;;7.10;99.10;;;;;;5013539;28;20108;-86
2021/05/05 10:07:55;;;;;;;9.53;4.60;;;7.30;99.20;;;;;;5012262;28;20032;-86
2021/05/05 10:10:24;;;;;;;8.45;3.83;;;7.30;99.80;;;;;;5011915;28;20049;-86
2021/05/05 10:12:51;;;;;;;12.00;4.18;;;7.30;98.90;;;;;;5013707;28;20511;-86
2021/05/05 10:15:17;;;;;;;6.67;2.93;;;7.30;98.80;;;;;;5012621;28;20029;-86
2021/05/05 10:17:48;;;;;;;6.13;2.77;;;7.30;98.50;;;;;;5013932;28;20425;-86
2021/05/05 10:20:16;;;;;;;4.80;2.33;;;7.30;97.60;;;;;;5013156;28;20094;-86
2021/05/05 10:22:42;;;;;;;6.97;2.50;;;7.30;97.20;;;;;;5012609;28;20026;-87
2021/05/05 10:25:12;;;;;;;3.10;1.63;;;7.30;98.10;;;;;;5012568;28;20030;-87
2021/05/05 10:27:38;;;;;;;6.47;1.90;;;7.30;97.00;;;;;;5012482;28;20388;-86
2021/05/05 10:30:04;;;;;;;4.67;1.20;;;7.30;97.20;;;;;;5011783;28;20259;-87
2021/05/05 10:32:33;;;;;;;11.90;1.70;;;7.30;95.90;;;;;;5013046;28;20462;-86
2021/05/05 10:34:58;;;;;;;4.37;1.60;;;7.30;95.20;;;;;;5012190;28;20030;-87
2021/05/05 10:37:45;;;;;;;6.10;2.00;;;7.30;95.20;;;;;;5028762;28;20129;-86
2021/05/05 10:40:22;;;;;;;3.73;1.73;;;7.40;96.10;;;;;;5028116;28;20041;-87
2021/05/05 10:42:50;;;;;;;5.63;2.07;;;7.50;95.70;;;;;;5012041;28;20100;-87
2021/05/05 10:45:27;;;;;;;5.17;1.80;;;7.60;95.30;;;;;;5012337;28;20030;-86
2021/05/05 10:48:03;;;;;;;8.73;2.67;;;7.60;95.00;;;;;;5013334;28;20053;-87
2021/05/05 10:50:29;;;;;;;10.00;2.60;;;7.70;95.40;;;;;;5012969;28;20080;-87
2021/05/05 10:52:57;;;;;;;18.27;9.13;;;7.70;95.10;;;;;;5013105;28;20033;-86
2021/05/05 10:55:41;;;;;;;13.97;3.30;;;7.70;95.60;;;;;;5011994;28;20030;-87
2021/05/05 10:58:10;;;;;;;9.93;3.17;;;7.70;95.60;;;;;;5011848;28;20057;-86
2021/05/05 11:00:46;;;;;;;12.67;3.33;;;7.80;96.50;;;;;;5012803;28;20053;-87
2021/05/05 11:03:12;;;;;;;5.10;2.03;;;7.90;96.30;;;;;;5011626;28;20054;-86
2021/05/05 11:05:39;;;;;;;6.20;2.00;;;7.60;95.40;;;;;;5011889;28;20025;-87
2021/05/05 11:08:09;;;;;;;5.57;2.03;;;7.50;95.90;;;;;;5013066;28;20020;-86
2021/05/05 11:10:37;;;;;;;4.40;1.90;;;7.50;95.60;;;;;;5011648;28;20022;-86
2021/05/05 11:13:15;;;;;;;9.97;2.63;;;7.70;95.70;;;;;;5013254;28;20018;-86
2021/05/05 11:15:40;;;;;;;8.80;2.70;;;7.80;95.40;;;;;;5011871;28;20032;-86
2021/05/05 11:18:25;;;;;;;9.50;2.40;;;7.90;94.60;;;;;;5011711;28;20025;-86
2021/05/05 11:20:52;;;;;;;8.50;2.57;;;8.00;95.10;;;;;;5013049;28;20045;-86
2021/05/05 11:23:33;;;;;;;12.17;3.00;;;8.10;94.10;;;;;;5011843;28;20072;-86
2021/05/05 11:26:29;;;;;;;9.73;3.10;;;8.20;93.90;;;;;;5013107;28;20030;-86
2021/05/05 11:28:59;;;;;;;;;;;8.10;94.30;;;;;;5013017;28;20049;-86
2021/05/05 11:31:44;;;;;;;;;;;7.70;96.90;;;;;;5012248;28;19945;-85
2021/05/05 11:34:37;;;;;;;;;;;7.30;97.90;;;;;;5012097;28;19956;-86
2021/05/05 11:37:04;;;;;;;;;;;6.80;98.20;;;;;;5055825;22;19921;-85
2021/05/05 11:39:33;;;;;;;;;;;6.60;98.90;;;;;;5066202;28;19905;-88
2021/05/05 11:42:06;;;;;;;;;;;6.50;99.40;;;;;;5066440;28;20254;-87
2021/05/05 11:44:36;;;;;;;;;;;6.40;98.90;;;;;;5066774;28;19972;-87
2021/05/05 11:47:12;;;;;;;;;;;6.40;97.70;;;;;;5066891;28;19931;-88
2021/05/05 11:49:39;;;;;;;;;;;6.50;96.40;;;;;;5066351;28;19904;-87
2021/05/05 11:52:25;;;;;;;;;;;6.70;97.80;;;;;;5069288;28;19915;-87
2021/05/05 11:54:56;;;;;;;;;;;6.90;97.50;;;;;;5068260;28;19911;-88
2021/05/05 11:57:23;;;;;;;;;;;7.00;97.60;;;;;;5066238;28;19907;-85
2021/05/05 11:59:48;;;;;;;;;;;7.10;96.10;;;;;;5065967;28;19905;-88
2021/05/05 12:02:16;;;;;;;;;;;7.10;96.30;;;;;;5067134;28;19905;-87
2021/05/05 12:04:42;;;;;;;;;;;7.20;96.90;;;;;;5066079;28;19913;-86
2021/05/05 12:07:10;;;;;;;;;;;7.40;97.40;;;;;;5065584;28;19905;-87
2021/05/05 12:09:39;;;;;;;;;;;7.60;97.00;;;;;;5059478;28;19956;-87
2021/05/05 12:12:12;;;;;;;;;;;7.60;97.70;;;;;;5053905;28;19928;-85
2021/05/05 12:14:38;;;;;;;;;;;7.90;97.00;;;;;;5053314;28;19905;-86
2021/05/05 12:17:23;;;;;;;;;;;8.20;96.40;;;;;;5054758;28;19912;-86
2021/05/05 12:19:52;;;;;;;;;;;8.30;97.00;;;;;;5057142;28;19912;-87
2021/05/05 12:22:18;;;;;;;;;;;8.40;94.90;;;;;;5058851;28;19905;-87
2021/05/05 12:25:02;;;;;;;;;;;8.60;92.80;;;;;;5060906;28;19916;-87
2021/05/05 12:27:28;;;;;;;;;;;8.70;93.80;;;;;;5061461;28;19951;-87
2021/05/05 12:30:00;;;;;;;;;;;8.90;93.60;;;;;;5058825;28;20284;-86
2021/05/05 12:32:45;;;;;;;;;;;8.90;92.60;;;;;;5058327;28;19955;-86
2021/05/05 12:35:11;;;;;;;;;;;9.00;92.80;;;;;;5058252;28;19915;-87
2021/05/05 12:37:37;;;;;;;;;;;9.00;92.00;;;;;;5060298;28;19913;-86
2021/05/05 12:40:04;;;;;;;;;;;9.00;91.70;;;;;;5059417;28;19904;-86
2021/05/05 12:42:34;;;;;;;;;;;9.00;92.40;;;;;;5058563;28;19987;-86
2021/05/05 12:45:13;;;;;;;;;;;8.90;91.40;;;;;;5060024;28;20365;-85
2021/05/05 12:47:39;;;;;;;;;;;8.60;92.00;;;;;;5058959;28;19915;-86
2021/05/05 12:50:06;;;;;;;;;;;8.40;92.90;;;;;;5057396;28;20369;-86
2021/05/05 12:52:34;;;;;;;;;;;8.20;92.40;;;;;;5059160;28;19977;-86
2021/05/05 12:55:01;;;;;;;;;;;8.20;93.60;;;;;;5059935;28;19911;-86
2021/05/05 12:57:27;;;;;;;;;;;8.10;93.70;;;;;;5058168;28;19905;-86
2021/05/05 12:59:53;;;;;;;;;;;8.00;94.50;;;;;;5056524;28;20349;-86
2021/05/05 13:02:25;;;;;;;8.07;1.77;;;7.60;95.60;;;;;;5058635;28;19944;-86
2021/05/05 13:05:03;;;;;;;13.43;2.53;;;7.00;95.10;;;;;;5058194;28;20032;-87
2021/05/05 13:07:37;;;;;;;10.63;2.47;;;6.80;96.50;;;;;;5057645;28;20397;-86
2021/05/05 13:10:09;;;;;;;13.70;4.33;;;6.70;96.70;;;;;;5056745;28;20102;-87
2021/05/05 13:18:24;;;;;;;29.90;7.43;;;6.80;98.50;;;;;;5058551;28;20093;-86
2021/05/05 13:32:43;;;;;;;13.53;3.60;;;7.40;96.70;;;;;;5058182;28;20037;-86
2021/05/05 13:35:31;;;;;;;20.73;4.80;;;7.50;97.00;;;;;;5056015;28;20032;-86
2021/05/05 13:38:07;;;;;;;9.88;3.22;;;7.60;97.20;;;;;;5058027;28;20060;-86
2021/05/05 13:40:41;;;;;;;10.90;2.80;;;7.80;95.80;;;;;;5058156;28;20032;-86
2021/05/05 13:43:19;;;;;;;9.53;3.00;;;7.90;95.10;;;;;;5058431;28;20500;-87
2021/05/05 13:45:51;;;;;;;7.50;2.40;;;8.10;96.30;;;;;;5056090;28;20028;-86
2021/05/05 13:51:01;;;;;;;10.00;3.20;;;8.30;94.50;;;;;;5056950;28;20028;-87
2021/05/05 13:53:26;;;;;;;9.97;2.90;;;8.40;93.70;;;;;;5058238;28;20021;-86
2021/05/05 13:55:52;;;;;;;9.70;2.90;;;8.50;93.70;;;;;;5056616;28;20490;-85
2021/05/05 13:58:18;;;;;;;11.67;2.47;;;8.60;92.90;;;;;;5056202;28;20031;-86